createdAt,value
2022-09-24T05:46:01.543Z,9.43
2022-09-24T05:48:29.621Z,10.98
2022-09-24T05:50:57.704Z,9.10
2022-09-24T05:53:25.965Z,9.82
2022-09-24T05:55:54.250Z,9.40
2022-09-24T05:58:22.272Z,10.32
2022-09-24T06:00:50.410Z,10.07
2022-09-24T06:03:20.969Z,10.98
2022-09-24T06:05:50.732Z,10.05
2022-09-24T06:08:20.588Z,9.77
2022-09-24T06:10:49.390Z,9.90
2022-09-24T06:13:20.869Z,9.60
2022-09-24T06:15:49.122Z,8.15
2022-09-24T06:18:17.173Z,8.80
2022-09-24T06:20:47.058Z,9.07
2022-09-24T06:23:15.036Z,8.57
2022-09-24T06:25:43.380Z,8.50
2022-09-24T06:28:11.506Z,8.27
2022-09-24T06:30:41.237Z,10.50
2022-09-24T06:33:11.751Z,10.52
2022-09-24T06:35:41.330Z,10.20
2022-09-24T06:38:14.316Z,9.25
2022-09-24T06:40:43.304Z,9.77
2022-09-24T06:43:13.277Z,9.45
2022-09-24T06:45:43.056Z,8.50
2022-09-24T06:48:12.633Z,7.93
2022-09-24T06:50:43.339Z,9.15
2022-09-24T06:53:13.056Z,8.18
2022-09-24T06:55:42.174Z,8.30
2022-09-24T06:58:12.443Z,7.68
2022-09-24T07:00:41.419Z,8.85
2022-09-24T07:03:16.438Z,7.28
2022-09-24T07:05:44.617Z,7.00
2022-09-24T07:08:14.303Z,8.15
2022-09-24T07:10:46.670Z,9.18
2022-09-24T07:13:15.461Z,8.65
2022-09-24T07:15:44.960Z,7.60
2022-09-24T07:18:13.874Z,8.18
2022-09-24T07:20:42.234Z,8.50
2022-09-24T07:23:12.127Z,9.13
2022-09-24T07:25:41.517Z,9.63
2022-09-24T07:28:12.629Z,10.63
2022-09-24T07:30:41.350Z,8.68
2022-09-24T07:33:10.255Z,8.10
2022-09-24T07:35:39.761Z,8.60
2022-09-24T07:38:09.333Z,8.27
2022-09-24T07:40:37.453Z,10.05
2022-09-24T07:43:13.715Z,12.20
2022-09-24T07:45:43.121Z,10.85
2022-09-24T07:48:12.503Z,10.18
2022-09-24T07:50:41.993Z,9.07
2022-09-24T07:53:12.107Z,7.35
2022-09-24T07:55:41.236Z,7.93
2022-09-24T07:58:14.585Z,9.30
2022-09-24T08:00:43.266Z,9.10
2022-09-24T08:03:11.513Z,8.18
2022-09-24T08:05:45.338Z,7.55
2022-09-24T08:08:13.679Z,9.05
2022-09-24T08:10:42.142Z,8.90
2022-09-24T08:13:12.055Z,12.02
2022-09-24T08:15:40.268Z,11.57
2022-09-24T08:18:08.641Z,8.80
2022-09-24T08:20:38.369Z,8.55
2022-09-24T08:23:10.056Z,8.57
2022-09-24T08:25:38.287Z,7.25
2022-09-24T08:28:07.570Z,6.80
2022-09-24T08:30:37.383Z,6.80
2022-09-24T08:33:06.655Z,8.85
2022-09-24T08:38:22.218Z,7.63
2022-09-24T08:41:04.257Z,6.45
2022-09-24T08:43:45.369Z,7.50
2022-09-24T08:46:35.899Z,8.27
2022-09-24T08:49:07.434Z,8.15
2022-09-24T08:51:45.186Z,9.52
2022-09-24T08:54:16.314Z,8.45
2022-09-24T08:56:47.657Z,8.25
2022-09-24T08:59:27.853Z,7.70
2022-09-24T09:02:16.826Z,9.43
2022-09-24T09:04:59.825Z,8.68
2022-09-24T09:07:33.458Z,8.65
2022-09-24T09:10:05.227Z,7.90
2022-09-24T09:12:38.595Z,8.27
2022-09-24T09:15:12.073Z,7.22
2022-09-24T09:17:47.706Z,7.47
2022-09-24T09:20:19.942Z,6.68
2022-09-24T09:22:53.331Z,7.13
2022-09-24T09:25:23.977Z,6.05
2022-09-24T09:27:58.007Z,7.57
2022-09-24T09:30:26.197Z,6.00
2022-09-24T09:33:26.355Z,6.97
2022-09-24T09:36:02.948Z,6.55
2022-09-24T09:38:38.456Z,7.30
2022-09-24T09:41:18.213Z,7.15
2022-09-24T09:43:47.192Z,7.25
2022-09-24T09:46:19.858Z,7.50
2022-09-24T09:48:54.320Z,7.30
2022-09-24T09:51:25.961Z,6.63
2022-09-24T09:53:58.331Z,8.43
2022-09-24T09:56:28.879Z,7.10
2022-09-24T09:59:06.861Z,7.07
2022-09-24T10:01:37.386Z,7.57
2022-09-24T10:04:06.991Z,8.13
2022-09-24T10:06:36.929Z,7.22
2022-09-24T10:09:10.262Z,7.50
2022-09-24T10:11:38.255Z,7.25
2022-09-24T10:14:07.533Z,6.97
2022-09-24T10:16:39.362Z,7.40
2022-09-24T10:19:18.241Z,7.07
2022-09-24T10:21:46.461Z,7.28
2022-09-24T10:24:18.271Z,6.80
2022-09-24T10:26:47.785Z,6.70
2022-09-24T10:29:37.322Z,6.57
2022-09-24T10:32:07.455Z,7.32
2022-09-24T10:34:37.096Z,6.60
2022-09-24T10:37:15.016Z,7.10
2022-09-24T10:39:43.613Z,6.10
2022-09-24T10:42:24.667Z,6.25
2022-09-24T10:44:53.838Z,6.40
2022-09-24T10:47:28.053Z,6.88
2022-09-24T10:50:18.840Z,6.22
2022-09-24T10:52:52.412Z,6.32
2022-09-24T10:55:40.208Z,6.60
2022-09-24T10:58:25.952Z,6.35
2022-09-24T11:01:06.410Z,6.10
2022-09-24T11:03:58.646Z,6.15
2022-09-24T11:06:45.067Z,6.45
2022-09-24T11:09:25.044Z,6.50
2022-09-24T11:12:05.253Z,5.90
2022-09-24T11:14:48.350Z,5.90
2022-09-24T11:17:35.921Z,5.70
2022-09-24T11:20:25.974Z,7.53
2022-09-24T11:23:24.778Z,30.05
2022-09-24T11:26:09.076Z,18.00
2022-09-24T11:28:55.114Z,8.45
2022-09-24T11:31:37.110Z,6.70
2022-09-24T11:34:33.898Z,6.40
2022-09-24T11:37:19.671Z,6.22
2022-09-24T11:40:08.768Z,7.00
2022-09-24T11:42:54.225Z,6.82
2022-09-24T11:45:47.970Z,6.90
2022-09-24T11:48:44.391Z,7.10
2022-09-24T11:51:31.353Z,8.60
2022-09-24T11:54:10.828Z,7.55
2022-09-24T11:56:48.797Z,6.03
2022-09-24T11:59:35.381Z,6.22
2022-09-24T12:02:20.827Z,6.38
2022-09-24T12:04:59.713Z,6.72
2022-09-24T12:07:38.053Z,7.18
2022-09-24T12:10:27.545Z,9.02
2022-09-24T12:13:14.704Z,9.50
2022-09-24T12:15:55.489Z,11.40
2022-09-24T12:18:27.565Z,13.32
2022-09-24T12:21:02.541Z,12.77
2022-09-24T12:23:37.004Z,12.50
2022-09-24T12:26:10.586Z,13.00
2022-09-24T12:29:13.238Z,12.15
2022-09-24T12:32:09.987Z,11.88
2022-09-24T12:34:53.029Z,11.30
2022-09-24T12:37:32.912Z,10.25
2022-09-24T12:40:22.965Z,11.77
2022-09-24T12:43:03.201Z,11.75
2022-09-24T12:45:40.213Z,12.63
2022-09-24T12:48:20.338Z,12.35
2022-09-24T12:51:00.928Z,11.20
2022-09-24T12:53:39.369Z,11.50
2022-09-24T12:56:12.499Z,12.77
2022-09-24T12:58:46.359Z,11.50
2022-09-24T13:01:30.646Z,11.10
2022-09-24T13:04:24.681Z,11.00
2022-09-24T13:06:54.259Z,12.60
2022-09-24T13:09:34.290Z,10.43
2022-09-24T13:12:20.000Z,10.50
2022-09-24T13:14:59.154Z,10.02
2022-09-24T13:17:31.036Z,10.80
2022-09-24T13:20:01.299Z,10.48
2022-09-24T13:22:31.831Z,10.82
2022-09-24T13:25:23.949Z,8.75
2022-09-24T13:28:06.389Z,8.20
2022-09-24T13:30:39.897Z,8.80
2022-09-24T13:33:24.161Z,7.80
2022-09-24T13:36:03.523Z,7.50
2022-09-24T13:38:36.518Z,7.50
2022-09-24T13:41:15.272Z,6.47
2022-09-24T13:43:49.997Z,7.80
2022-09-24T13:46:22.207Z,7.50
2022-09-24T13:48:54.900Z,7.97
2022-09-24T13:51:26.799Z,8.13
2022-09-24T13:54:04.208Z,8.68
2022-09-24T13:56:35.680Z,7.68
2022-09-24T13:59:08.128Z,9.13
2022-09-24T14:01:44.709Z,7.25
2022-09-24T14:04:24.149Z,6.68
2022-09-24T14:07:00.275Z,6.45
2022-09-24T14:09:34.945Z,7.30
2022-09-24T14:12:18.638Z,7.13
2022-09-24T14:14:59.846Z,6.53
2022-09-24T14:17:33.451Z,6.85
2022-09-24T14:20:10.261Z,6.60
2022-09-24T14:22:49.899Z,5.70
2022-09-24T14:25:28.733Z,5.65
2022-09-24T14:28:01.939Z,6.68
2022-09-24T14:30:32.655Z,6.85
2022-09-24T14:33:04.230Z,6.95
2022-09-24T14:35:35.890Z,7.05
2022-09-24T14:38:08.861Z,6.90
2022-09-24T14:40:44.161Z,7.25
2022-09-24T14:43:22.053Z,6.30
2022-09-24T14:45:52.388Z,6.97
2022-09-24T14:48:28.884Z,7.45
2022-09-24T14:50:58.976Z,7.00
2022-09-24T14:53:29.881Z,8.02
2022-09-24T14:55:58.425Z,6.90
2022-09-24T14:58:35.094Z,8.73
2022-09-24T15:01:07.323Z,8.13
2022-09-24T15:03:41.489Z,7.63
2022-09-24T15:06:21.673Z,7.35
2022-09-24T15:08:56.727Z,8.52
2022-09-24T15:11:28.186Z,8.48
2022-09-24T15:14:01.295Z,8.02
2022-09-24T15:16:31.963Z,8.20
2022-09-24T15:19:13.496Z,8.10
2022-09-24T15:21:43.105Z,7.93
2022-09-24T15:24:12.145Z,8.60
2022-09-24T15:26:42.936Z,7.65
2022-09-24T15:29:20.014Z,8.40
2022-09-24T15:31:48.102Z,7.65
2022-09-24T15:34:19.816Z,8.20
2022-09-24T15:36:50.548Z,8.25
2022-09-24T15:39:20.395Z,7.28
2022-09-24T15:41:48.826Z,7.15
2022-09-24T15:44:21.848Z,11.60
2022-09-24T15:46:51.238Z,16.05
2022-09-24T15:49:22.098Z,12.80
2022-09-24T15:51:54.730Z,9.10
2022-09-24T15:54:24.815Z,9.70
2022-09-24T15:56:53.131Z,8.80
2022-09-24T15:59:22.648Z,8.50
2022-09-24T16:01:53.094Z,9.45
2022-09-24T16:04:21.402Z,8.32
2022-09-24T16:06:50.211Z,8.23
2022-09-24T16:09:19.853Z,7.80
2022-09-24T16:11:50.141Z,9.10
2022-09-24T16:14:21.104Z,7.47
2022-09-24T16:16:49.835Z,8.20
2022-09-24T16:19:18.072Z,8.30
2022-09-24T16:21:46.644Z,7.65
2022-09-24T16:24:17.052Z,8.60
2022-09-24T16:26:49.432Z,9.65
2022-09-24T16:29:23.866Z,7.63
2022-09-24T16:31:54.288Z,6.50
2022-09-24T16:34:23.840Z,8.07
2022-09-24T16:36:56.858Z,8.18
2022-09-24T16:39:27.889Z,8.23
2022-09-24T16:42:04.649Z,8.38
2022-09-24T16:44:37.090Z,7.88
2022-09-24T16:47:08.354Z,8.48
2022-09-24T16:49:37.622Z,8.80
2022-09-24T16:52:10.223Z,7.95
2022-09-24T16:54:41.294Z,8.50
2022-09-24T16:57:14.191Z,8.25
2022-09-24T16:59:43.508Z,9.00
2022-09-24T17:02:18.344Z,8.85
2022-09-24T17:04:49.659Z,8.90
2022-09-24T17:07:22.065Z,8.93
2022-09-24T17:10:10.610Z,9.18
2022-09-24T17:12:46.543Z,9.50
2022-09-24T17:15:22.378Z,9.98
2022-09-24T17:17:58.305Z,9.85
2022-09-24T17:20:30.049Z,9.88
2022-09-24T17:23:05.854Z,10.35
2022-09-24T17:25:35.625Z,9.10
2022-09-24T17:28:05.165Z,9.98
2022-09-24T17:30:33.525Z,10.52
2022-09-24T17:33:01.654Z,10.05
2022-09-24T17:35:29.860Z,8.30
2022-09-24T17:37:58.114Z,9.07
2022-09-24T17:40:26.795Z,9.77
2022-09-24T17:42:55.087Z,10.02
2022-09-24T17:45:26.144Z,10.75
2022-09-24T17:48:01.102Z,9.85
2022-09-24T17:50:29.921Z,11.75
2022-09-24T17:53:03.795Z,13.00
2022-09-24T17:55:32.197Z,17.13
2022-09-24T17:58:00.576Z,12.52
2022-09-24T18:00:30.197Z,8.68
2022-09-24T18:02:58.414Z,7.68
2022-09-24T18:05:26.731Z,6.50
2022-09-24T18:07:54.834Z,6.25
2022-09-24T18:10:22.918Z,5.22
2022-09-24T18:12:50.921Z,4.88
2022-09-24T18:15:19.193Z,5.18
2022-09-24T18:17:48.680Z,5.03
2022-09-24T18:20:16.780Z,4.53
2022-09-24T18:22:44.854Z,5.28
2022-09-24T18:25:13.767Z,5.13
2022-09-24T18:27:41.871Z,3.97
2022-09-24T18:30:11.888Z,4.30
2022-09-24T18:32:40.526Z,5.68
2022-09-24T18:35:11.237Z,5.88
2022-09-24T18:37:39.601Z,7.80
2022-09-24T18:40:08.878Z,7.40
2022-09-24T18:42:37.107Z,7.32
2022-09-24T18:45:08.348Z,5.78
2022-09-24T18:47:40.212Z,5.28
2022-09-24T18:50:11.251Z,5.82
2022-09-24T18:52:43.413Z,4.05
2022-09-24T18:55:15.024Z,5.53
2022-09-24T18:57:52.688Z,5.75
2022-09-24T19:00:46.181Z,6.53
2022-09-24T19:03:17.418Z,6.57
2022-09-24T19:05:50.762Z,7.05
2022-09-24T19:08:25.163Z,7.40
2022-09-24T19:10:55.226Z,7.95
2022-09-24T19:13:26.404Z,8.00
2022-09-24T19:15:54.892Z,6.97
2022-09-24T19:18:22.939Z,6.82
2022-09-24T19:20:53.479Z,6.25
2022-09-24T19:23:21.637Z,7.22
2022-09-24T19:25:50.213Z,8.20
2022-09-24T19:28:18.370Z,7.82
2022-09-24T19:30:49.323Z,8.75
2022-09-24T19:33:17.785Z,8.85
2022-09-24T19:35:56.401Z,6.53
2022-09-24T19:38:26.182Z,8.38
2022-09-24T19:41:01.625Z,7.72
2022-09-24T19:43:31.077Z,6.90
2022-09-24T19:46:00.578Z,7.65
2022-09-24T19:48:30.508Z,8.18
2022-09-24T19:51:02.272Z,10.52
2022-09-24T19:53:31.395Z,9.13
2022-09-24T19:55:59.757Z,9.32
2022-09-24T19:58:28.413Z,9.02
2022-09-24T20:01:01.063Z,12.75
2022-09-24T20:03:29.200Z,13.80
2022-09-24T20:05:57.349Z,11.63
2022-09-24T20:08:27.064Z,10.50
2022-09-24T20:10:54.972Z,11.95
2022-09-24T20:13:22.964Z,11.05
2022-09-24T20:15:59.094Z,11.02
2022-09-24T20:18:27.548Z,9.52
2022-09-24T20:20:55.518Z,8.90
2022-09-24T20:23:24.001Z,10.05
2022-09-24T20:26:12.158Z,10.60
2022-09-24T20:28:40.869Z,9.63
2022-09-24T20:31:11.426Z,9.63
2022-09-24T20:33:41.429Z,9.63
2022-09-24T20:36:15.895Z,9.18
2022-09-24T20:38:47.274Z,8.65
2022-09-24T20:41:19.239Z,9.27
2022-09-24T20:43:47.853Z,24.85
2022-09-24T20:46:18.804Z,20.20
2022-09-24T20:48:47.830Z,21.90
2022-09-24T20:51:18.222Z,11.65
2022-09-24T20:53:47.164Z,11.70
2022-09-24T20:56:17.599Z,12.00
2022-09-24T20:58:45.777Z,11.80
2022-09-24T21:01:13.760Z,10.82
2022-09-24T21:03:45.326Z,11.40
2022-09-24T21:06:16.612Z,9.88
2022-09-24T21:08:47.291Z,9.07
2022-09-24T21:11:23.924Z,9.65
2022-09-24T21:13:56.146Z,8.10
2022-09-24T21:16:29.628Z,8.15
2022-09-24T21:19:05.752Z,8.43
2022-09-24T21:21:44.407Z,7.82
2022-09-24T21:24:16.504Z,7.43
2022-09-24T21:26:46.619Z,8.43
2022-09-24T21:29:17.510Z,6.90
2022-09-24T21:31:47.100Z,7.47
2022-09-24T21:34:16.961Z,6.65
2022-09-24T21:36:46.500Z,7.18
2022-09-24T21:39:17.060Z,8.10
2022-09-24T21:41:49.992Z,7.70
2022-09-24T21:44:19.280Z,8.20
2022-09-24T21:46:47.833Z,7.50
2022-09-24T21:49:17.127Z,8.23
2022-09-24T21:51:46.045Z,6.82
2022-09-24T21:54:17.129Z,6.72
2022-09-24T21:56:47.830Z,12.90
2022-09-24T21:59:34.310Z,12.10
2022-09-24T22:02:02.717Z,10.30
2022-09-24T22:04:32.427Z,9.15
2022-09-24T22:07:00.671Z,8.52
2022-09-24T22:09:29.009Z,8.25
2022-09-24T22:12:00.017Z,7.70
2022-09-24T22:14:28.341Z,8.30
2022-09-24T22:16:56.778Z,8.25
2022-09-24T22:19:25.054Z,8.70
2022-09-24T22:21:53.364Z,8.98
2022-09-24T22:24:21.486Z,9.57
2022-09-24T22:26:49.583Z,9.57
2022-09-24T22:29:19.155Z,8.65
2022-09-24T22:31:47.212Z,7.40
2022-09-24T22:34:41.009Z,8.07
2022-09-24T22:37:08.901Z,8.55
2022-09-24T22:39:36.977Z,9.70
2022-09-24T22:42:06.047Z,9.88
2022-09-24T22:44:35.333Z,9.43
2022-09-24T22:47:03.429Z,8.60
2022-09-24T22:49:32.563Z,8.95
2022-09-24T22:52:00.957Z,9.70
2022-09-24T22:54:28.911Z,8.98
2022-09-24T22:56:57.033Z,9.52
2022-09-24T22:59:25.124Z,9.15
2022-09-24T23:01:54.801Z,8.23
2022-09-24T23:04:22.869Z,8.82
2022-09-24T23:06:50.821Z,6.47
2022-09-24T23:09:18.929Z,6.28
2022-09-24T23:11:47.071Z,7.00
2022-09-24T23:14:16.675Z,7.18
2022-09-24T23:16:45.036Z,8.10
2022-09-24T23:19:16.714Z,8.23
2022-09-24T23:21:45.973Z,8.20
2022-09-24T23:24:16.060Z,8.38
2022-09-24T23:26:44.277Z,8.90
2022-09-24T23:29:13.745Z,9.13
2022-09-24T23:31:41.626Z,8.85
2022-09-24T23:34:10.527Z,8.00
2022-09-24T23:36:40.014Z,9.52
2022-09-24T23:39:08.104Z,9.30
2022-09-24T23:41:36.155Z,8.07
2022-09-24T23:44:04.517Z,9.73
2022-09-24T23:46:33.966Z,9.25
2022-09-24T23:49:02.083Z,8.52
2022-09-24T23:51:30.096Z,8.98
2022-09-24T23:53:59.461Z,9.20
2022-09-24T23:56:28.412Z,8.30
2022-09-24T23:58:57.714Z,9.15
